sensor_id;sensor_type;location;lat;lon;timestamp;temperature;humidity
21678;DHT22;11000;50.360;7.582;2023-09-19T00:02:02;17.60;99.90
21678;DHT22;11000;50.360;7.582;2023-09-19T00:04:25;17.60;99.90
21678;DHT22;11000;50.360;7.582;2023-09-19T00:06:49;17.60;99.90
21678;DHT22;11000;50.360;7.582;2023-09-19T00:09:10;17.50;99.90
21678;DHT22;11000;50.360;7.582;2023-09-19T00:11:31;17.50;99.90
21678;DHT22;11000;50.360;7.582;2023-09-19T00:13:51;17.50;99.90
21678;DHT22;11000;50.360;7.582;2023-09-19T00:16:12;17.40;99.90
21678;DHT22;11000;50.360;7.582;2023-09-19T00:18:32;17.40;99.90
21678;DHT22;11000;50.360;7.582;2023-09-19T00:20:58;17.40;99.90
21678;DHT22;11000;50.360;7.582;2023-09-19T00:23:19;17.40;99.90
21678;DHT22;11000;50.360;7.582;2023-09-19T00:25:39;17.30;99.90
21678;DHT22;11000;50.360;7.582;2023-09-19T00:28:00;17.40;99.90
21678;DHT22;11000;50.360;7.582;2023-09-19T00:30:21;17.30;99.90
21678;DHT22;11000;50.360;7.582;2023-09-19T00:32:44;17.40;99.90
21678;DHT22;11000;50.360;7.582;2023-09-19T00:35:07;17.40;99.90
21678;DHT22;11000;50.360;7.582;2023-09-19T00:37:31;17.30;99.90
21678;DHT22;11000;50.360;7.582;2023-09-19T00:39:51;17.30;99.90
21678;DHT22;11000;50.360;7.582;2023-09-19T00:42:21;17.30;99.90
21678;DHT22;11000;50.360;7.582;2023-09-19T00:44:41;17.30;99.90
21678;DHT22;11000;50.360;7.582;2023-09-19T00:47:02;17.30;99.90
21678;DHT22;11000;50.360;7.582;2023-09-19T00:49:22;17.30;99.90
21678;DHT22;11000;50.360;7.582;2023-09-19T00:51:43;17.30;99.90
21678;DHT22;11000;50.360;7.582;2023-09-19T00:54:07;17.20;99.90
21678;DHT22;11000;50.360;7.582;2023-09-19T00:56:28;17.30;99.90
21678;DHT22;11000;50.360;7.582;2023-09-19T00:58:49;17.20;99.90
21678;DHT22;11000;50.360;7.582;2023-09-19T01:01:10;17.20;99.90
21678;DHT22;11000;50.360;7.582;2023-09-19T01:03:32;17.20;99.90
21678;DHT22;11000;50.360;7.582;2023-09-19T01:05:54;17.20;99.90
21678;DHT22;11000;50.360;7.582;2023-09-19T01:08:14;17.10;99.90
21678;DHT22;11000;50.360;7.582;2023-09-19T01:10:36;17.10;99.90
21678;DHT22;11000;50.360;7.582;2023-09-19T01:13:08;17.10;99.90
21678;DHT22;11000;50.360;7.582;2023-09-19T01:15:51;17.00;99.90
21678;DHT22;11000;50.360;7.582;2023-09-19T01:26:28;17.00;99.90
21678;DHT22;11000;50.360;7.582;2023-09-19T01:31:53;16.90;99.90
21678;DHT22;11000;50.360;7.582;2023-09-19T01:34:14;16.90;99.90
21678;DHT22;11000;50.360;7.582;2023-09-19T01:36:36;16.90;99.90
21678;DHT22;11000;50.360;7.582;2023-09-19T01:38:57;16.90;99.90
21678;DHT22;11000;50.360;7.582;2023-09-19T01:44:49;16.80;99.90
21678;DHT22;11000;50.360;7.582;2023-09-19T01:47:24;16.90;99.90
21678;DHT22;11000;50.360;7.582;2023-09-19T01:49:55;16.80;99.90
21678;DHT22;11000;50.360;7.582;2023-09-19T01:52:19;16.80;99.90
21678;DHT22;11000;50.360;7.582;2023-09-19T01:54:48;16.80;99.90
21678;DHT22;11000;50.360;7.582;2023-09-19T01:57:22;16.80;99.90
21678;DHT22;11000;50.360;7.582;2023-09-19T01:59:57;16.80;99.90
21678;DHT22;11000;50.360;7.582;2023-09-19T02:02:21;16.80;99.90
21678;DHT22;11000;50.360;7.582;2023-09-19T02:04:43;16.70;99.90
21678;DHT22;11000;50.360;7.582;2023-09-19T02:07:03;16.70;99.90
21678;DHT22;11000;50.360;7.582;2023-09-19T02:09:25;16.70;99.90
21678;DHT22;11000;50.360;7.582;2023-09-19T02:11:46;16.70;99.90
21678;DHT22;11000;50.360;7.582;2023-09-19T02:14:07;16.70;99.90
21678;DHT22;11000;50.360;7.582;2023-09-19T02:16:28;16.70;99.90
21678;DHT22;11000;50.360;7.582;2023-09-19T02:18:49;16.60;99.90
21678;DHT22;11000;50.360;7.582;2023-09-19T02:21:10;16.60;99.90
21678;DHT22;11000;50.360;7.582;2023-09-19T02:23:32;16.60;99.90
21678;DHT22;11000;50.360;7.582;2023-09-19T02:25:54;16.60;99.90
21678;DHT22;11000;50.360;7.582;2023-09-19T02:28:14;16.60;99.90
21678;DHT22;11000;50.360;7.582;2023-09-19T02:30:35;16.50;99.90
21678;DHT22;11000;50.360;7.582;2023-09-19T02:32:56;16.50;99.90
21678;DHT22;11000;50.360;7.582;2023-09-19T02:35:17;16.50;99.90
21678;DHT22;11000;50.360;7.582;2023-09-19T02:37:40;16.50;99.90
21678;DHT22;11000;50.360;7.582;2023-09-19T02:40:00;16.50;99.90
21678;DHT22;11000;50.360;7.582;2023-09-19T02:42:21;16.50;99.90
21678;DHT22;11000;50.360;7.582;2023-09-19T02:44:41;16.50;99.90
21678;DHT22;11000;50.360;7.582;2023-09-19T02:47:02;16.50;99.90
21678;DHT22;11000;50.360;7.582;2023-09-19T02:49:23;16.40;99.90
21678;DHT22;11000;50.360;7.582;2023-09-19T02:51:44;16.40;99.90
21678;DHT22;11000;50.360;7.582;2023-09-19T02:54:06;16.40;99.90
21678;DHT22;11000;50.360;7.582;2023-09-19T02:56:26;16.50;99.90
21678;DHT22;11000;50.360;7.582;2023-09-19T02:58:47;16.40;99.90
21678;DHT22;11000;50.360;7.582;2023-09-19T03:01:09;16.50;99.90
21678;DHT22;11000;50.360;7.582;2023-09-19T03:03:31;16.40;99.90
21678;DHT22;11000;50.360;7.582;2023-09-19T03:05:52;16.40;99.90
21678;DHT22;11000;50.360;7.582;2023-09-19T03:08:14;16.30;99.90
21678;DHT22;11000;50.360;7.582;2023-09-19T03:10:37;16.30;99.90
21678;DHT22;11000;50.360;7.582;2023-09-19T03:12:58;16.30;99.90
21678;DHT22;11000;50.360;7.582;2023-09-19T03:15:20;16.30;99.90
21678;DHT22;11000;50.360;7.582;2023-09-19T03:17:46;16.30;99.90
21678;DHT22;11000;50.360;7.582;2023-09-19T03:20:08;16.40;99.90
21678;DHT22;11000;50.360;7.582;2023-09-19T03:22:29;16.30;99.90
21678;DHT22;11000;50.360;7.582;2023-09-19T03:24:49;16.40;99.90
21678;DHT22;11000;50.360;7.582;2023-09-19T03:27:10;16.30;99.90
21678;DHT22;11000;50.360;7.582;2023-09-19T03:29:31;16.30;99.90
21678;DHT22;11000;50.360;7.582;2023-09-19T03:31:51;16.30;99.90
21678;DHT22;11000;50.360;7.582;2023-09-19T03:34:11;16.30;99.90
21678;DHT22;11000;50.360;7.582;2023-09-19T03:36:32;16.40;99.90
21678;DHT22;11000;50.360;7.582;2023-09-19T03:38:53;16.30;99.90
21678;DHT22;11000;50.360;7.582;2023-09-19T03:41:13;16.30;99.90
21678;DHT22;11000;50.360;7.582;2023-09-19T03:43:37;16.30;99.90
21678;DHT22;11000;50.360;7.582;2023-09-19T03:46:01;16.30;99.90
21678;DHT22;11000;50.360;7.582;2023-09-19T03:48:23;16.30;99.90
21678;DHT22;11000;50.360;7.582;2023-09-19T03:50:43;16.30;99.90
21678;DHT22;11000;50.360;7.582;2023-09-19T03:53:04;16.30;99.90
21678;DHT22;11000;50.360;7.582;2023-09-19T03:55:26;16.30;99.90
21678;DHT22;11000;50.360;7.582;2023-09-19T03:57:50;16.20;99.90
21678;DHT22;11000;50.360;7.582;2023-09-19T04:00:11;16.20;99.90
21678;DHT22;11000;50.360;7.582;2023-09-19T04:02:33;16.20;99.90
21678;DHT22;11000;50.360;7.582;2023-09-19T04:04:53;16.20;99.90
21678;DHT22;11000;50.360;7.582;2023-09-19T04:07:14;16.20;99.90
21678;DHT22;11000;50.360;7.582;2023-09-19T04:09:34;16.20;99.90
21678;DHT22;11000;50.360;7.582;2023-09-19T04:11:55;16.20;99.90
21678;DHT22;11000;50.360;7.582;2023-09-19T04:14:15;16.20;99.90
21678;DHT22;11000;50.360;7.582;2023-09-19T04:16:36;16.20;99.90
21678;DHT22;11000;50.360;7.582;2023-09-19T04:18:56;16.10;99.90
21678;DHT22;11000;50.360;7.582;2023-09-19T04:21:17;16.00;99.90
21678;DHT22;11000;50.360;7.582;2023-09-19T04:23:37;16.00;99.90
21678;DHT22;11000;50.360;7.582;2023-09-19T04:25:58;16.00;99.90
21678;DHT22;11000;50.360;7.582;2023-09-19T04:28:18;16.00;99.90
21678;DHT22;11000;50.360;7.582;2023-09-19T04:30:39;16.00;99.90
21678;DHT22;11000;50.360;7.582;2023-09-19T04:33:03;16.00;99.90
21678;DHT22;11000;50.360;7.582;2023-09-19T04:35:25;16.00;99.90
21678;DHT22;11000;50.360;7.582;2023-09-19T04:37:47;16.00;99.90
21678;DHT22;11000;50.360;7.582;2023-09-19T04:40:09;16.00;99.90
21678;DHT22;11000;50.360;7.582;2023-09-19T04:42:38;16.00;99.90
21678;DHT22;11000;50.360;7.582;2023-09-19T04:44:58;16.00;99.90
21678;DHT22;11000;50.360;7.582;2023-09-19T04:47:20;16.10;99.90
21678;DHT22;11000;50.360;7.582;2023-09-19T04:49:42;16.00;99.90
21678;DHT22;11000;50.360;7.582;2023-09-19T04:52:03;16.00;99.90
21678;DHT22;11000;50.360;7.582;2023-09-19T04:54:23;16.00;99.90
21678;DHT22;11000;50.360;7.582;2023-09-19T04:56:44;16.00;99.90
21678;DHT22;11000;50.360;7.582;2023-09-19T04:59:04;16.00;99.90
21678;DHT22;11000;50.360;7.582;2023-09-19T05:01:25;16.00;99.90
21678;DHT22;11000;50.360;7.582;2023-09-19T05:03:46;16.00;99.90
21678;DHT22;11000;50.360;7.582;2023-09-19T05:06:12;16.10;99.90
21678;DHT22;11000;50.360;7.582;2023-09-19T05:08:32;16.10;99.90
21678;DHT22;11000;50.360;7.582;2023-09-19T05:10:53;16.10;99.90
21678;DHT22;11000;50.360;7.582;2023-09-19T05:13:16;16.10;99.90
21678;DHT22;11000;50.360;7.582;2023-09-19T05:15:37;16.10;99.90
21678;DHT22;11000;50.360;7.582;2023-09-19T05:17:57;16.10;99.90
21678;DHT22;11000;50.360;7.582;2023-09-19T05:20:18;16.10;99.90
21678;DHT22;11000;50.360;7.582;2023-09-19T05:22:49;16.10;99.90
21678;DHT22;11000;50.360;7.582;2023-09-19T05:25:10;16.00;99.90
21678;DHT22;11000;50.360;7.582;2023-09-19T05:27:31;16.00;99.90
21678;DHT22;11000;50.360;7.582;2023-09-19T05:29:51;16.00;99.90
21678;DHT22;11000;50.360;7.582;2023-09-19T05:32:13;16.00;99.90
21678;DHT22;11000;50.360;7.582;2023-09-19T05:34:33;16.00;99.90
21678;DHT22;11000;50.360;7.582;2023-09-19T05:36:54;16.00;99.90
21678;DHT22;11000;50.360;7.582;2023-09-19T05:39:14;16.00;99.90
21678;DHT22;11000;50.360;7.582;2023-09-19T05:41:36;16.00;99.90
21678;DHT22;11000;50.360;7.582;2023-09-19T05:44:00;16.00;99.90
21678;DHT22;11000;50.360;7.582;2023-09-19T05:46:20;16.00;99.90
21678;DHT22;11000;50.360;7.582;2023-09-19T05:48:41;16.00;99.90
21678;DHT22;11000;50.360;7.582;2023-09-19T05:51:04;16.00;99.90
21678;DHT22;11000;50.360;7.582;2023-09-19T05:53:24;16.00;99.90
21678;DHT22;11000;50.360;7.582;2023-09-19T05:55:45;16.10;99.90
21678;DHT22;11000;50.360;7.582;2023-09-19T05:58:06;16.00;99.90
21678;DHT22;11000;50.360;7.582;2023-09-19T06:00:27;16.00;99.90
21678;DHT22;11000;50.360;7.582;2023-09-19T06:02:57;16.10;99.90
21678;DHT22;11000;50.360;7.582;2023-09-19T06:05:17;16.10;99.90
21678;DHT22;11000;50.360;7.582;2023-09-19T06:07:38;16.10;99.90
21678;DHT22;11000;50.360;7.582;2023-09-19T06:10:08;16.10;99.90
21678;DHT22;11000;50.360;7.582;2023-09-19T06:12:32;16.10;99.90
21678;DHT22;11000;50.360;7.582;2023-09-19T06:14:55;16.20;99.90
21678;DHT22;11000;50.360;7.582;2023-09-19T06:17:16;16.20;99.90
21678;DHT22;11000;50.360;7.582;2023-09-19T06:19:37;16.20;99.90
21678;DHT22;11000;50.360;7.582;2023-09-19T06:21:57;16.20;99.90
21678;DHT22;11000;50.360;7.582;2023-09-19T06:24:19;16.30;99.90
21678;DHT22;11000;50.360;7.582;2023-09-19T06:26:41;16.30;99.90
21678;DHT22;11000;50.360;7.582;2023-09-19T06:29:02;16.30;99.90
21678;DHT22;11000;50.360;7.582;2023-09-19T06:31:27;16.40;99.90
21678;DHT22;11000;50.360;7.582;2023-09-19T06:33:48;16.40;99.90
21678;DHT22;11000;50.360;7.582;2023-09-19T06:36:09;16.50;99.90
21678;DHT22;11000;50.360;7.582;2023-09-19T06:38:29;16.50;99.90
21678;DHT22;11000;50.360;7.582;2023-09-19T06:40:50;16.60;99.90
21678;DHT22;11000;50.360;7.582;2023-09-19T06:43:11;16.60;99.90
21678;DHT22;11000;50.360;7.582;2023-09-19T06:45:31;16.60;99.90
21678;DHT22;11000;50.360;7.582;2023-09-19T06:47:52;16.60;99.90
21678;DHT22;11000;50.360;7.582;2023-09-19T06:50:14;16.60;99.90
21678;DHT22;11000;50.360;7.582;2023-09-19T06:52:35;16.70;99.90
21678;DHT22;11000;50.360;7.582;2023-09-19T06:54:55;16.70;99.90
21678;DHT22;11000;50.360;7.582;2023-09-19T06:57:16;16.60;99.90
21678;DHT22;11000;50.360;7.582;2023-09-19T06:59:36;16.70;99.90
21678;DHT22;11000;50.360;7.582;2023-09-19T07:01:57;16.80;99.90
21678;DHT22;11000;50.360;7.582;2023-09-19T07:04:19;16.80;99.90
21678;DHT22;11000;50.360;7.582;2023-09-19T07:06:40;16.80;99.90
21678;DHT22;11000;50.360;7.582;2023-09-19T07:09:00;16.90;99.90
21678;DHT22;11000;50.360;7.582;2023-09-19T07:11:21;16.90;99.90
21678;DHT22;11000;50.360;7.582;2023-09-19T07:13:43;16.90;99.90
21678;DHT22;11000;50.360;7.582;2023-09-19T07:16:04;17.00;99.90
21678;DHT22;11000;50.360;7.582;2023-09-19T07:18:25;17.00;99.90
21678;DHT22;11000;50.360;7.582;2023-09-19T07:20:46;17.00;99.90
21678;DHT22;11000;50.360;7.582;2023-09-19T07:23:10;17.10;99.90
21678;DHT22;11000;50.360;7.582;2023-09-19T07:25:30;17.20;99.90
21678;DHT22;11000;50.360;7.582;2023-09-19T07:27:51;17.30;99.90
21678;DHT22;11000;50.360;7.582;2023-09-19T07:30:12;17.40;99.90
21678;DHT22;11000;50.360;7.582;2023-09-19T07:32:32;17.50;99.90
21678;DHT22;11000;50.360;7.582;2023-09-19T07:34:53;17.50;99.90
21678;DHT22;11000;50.360;7.582;2023-09-19T07:37:15;17.60;99.90
21678;DHT22;11000;50.360;7.582;2023-09-19T07:39:36;17.70;99.90
21678;DHT22;11000;50.360;7.582;2023-09-19T07:41:57;17.80;99.90
21678;DHT22;11000;50.360;7.582;2023-09-19T07:44:18;17.80;99.90
21678;DHT22;11000;50.360;7.582;2023-09-19T07:46:39;17.90;99.90
21678;DHT22;11000;50.360;7.582;2023-09-19T07:49:00;18.10;99.90
21678;DHT22;11000;50.360;7.582;2023-09-19T07:51:20;18.10;99.90
21678;DHT22;11000;50.360;7.582;2023-09-19T07:53:41;18.20;99.90
21678;DHT22;11000;50.360;7.582;2023-09-19T07:56:06;18.40;99.90
21678;DHT22;11000;50.360;7.582;2023-09-19T07:58:27;18.50;99.90
21678;DHT22;11000;50.360;7.582;2023-09-19T08:00:47;18.70;99.90
21678;DHT22;11000;50.360;7.582;2023-09-19T08:03:08;18.80;99.90
21678;DHT22;11000;50.360;7.582;2023-09-19T08:05:29;18.70;99.90
21678;DHT22;11000;50.360;7.582;2023-09-19T08:07:49;18.60;99.90
21678;DHT22;11000;50.360;7.582;2023-09-19T08:10:10;18.70;99.90
21678;DHT22;11000;50.360;7.582;2023-09-19T08:12:36;18.50;99.90
21678;DHT22;11000;50.360;7.582;2023-09-19T08:14:56;18.40;99.90
21678;DHT22;11000;50.360;7.582;2023-09-19T08:17:17;18.40;99.90
21678;DHT22;11000;50.360;7.582;2023-09-19T08:19:37;18.30;99.90
21678;DHT22;11000;50.360;7.582;2023-09-19T08:22:01;18.40;99.90
21678;DHT22;11000;50.360;7.582;2023-09-19T08:24:21;18.40;99.90
21678;DHT22;11000;50.360;7.582;2023-09-19T08:26:42;18.30;99.90
21678;DHT22;11000;50.360;7.582;2023-09-19T08:29:02;18.30;99.90
21678;DHT22;11000;50.360;7.582;2023-09-19T08:31:25;18.40;99.90
21678;DHT22;11000;50.360;7.582;2023-09-19T08:33:46;18.30;99.90
21678;DHT22;11000;50.360;7.582;2023-09-19T08:36:09;18.10;99.90
21678;DHT22;11000;50.360;7.582;2023-09-19T08:38:34;18.10;99.90
21678;DHT22;11000;50.360;7.582;2023-09-19T08:41:08;18.20;99.90
21678;DHT22;11000;50.360;7.582;2023-09-19T08:43:28;18.10;99.90
21678;DHT22;11000;50.360;7.582;2023-09-19T08:45:49;18.10;99.90
21678;DHT22;11000;50.360;7.582;2023-09-19T08:48:20;18.10;99.90
21678;DHT22;11000;50.360;7.582;2023-09-19T08:50:55;18.00;99.90
21678;DHT22;11000;50.360;7.582;2023-09-19T08:56:11;18.00;99.90
21678;DHT22;11000;50.360;7.582;2023-09-19T08:58:44;18.10;99.90
21678;DHT22;11000;50.360;7.582;2023-09-19T09:01:07;18.10;99.90
21678;DHT22;11000;50.360;7.582;2023-09-19T09:03:32;18.20;99.90
21678;DHT22;11000;50.360;7.582;2023-09-19T09:05:54;18.30;99.90
21678;DHT22;11000;50.360;7.582;2023-09-19T09:08:15;18.40;99.90
21678;DHT22;11000;50.360;7.582;2023-09-19T09:10:37;18.40;99.90
21678;DHT22;11000;50.360;7.582;2023-09-19T09:12:58;18.40;99.90
21678;DHT22;11000;50.360;7.582;2023-09-19T09:15:19;18.40;99.90
21678;DHT22;11000;50.360;7.582;2023-09-19T09:17:41;18.40;99.90
21678;DHT22;11000;50.360;7.582;2023-09-19T09:20:03;18.40;99.90
21678;DHT22;11000;50.360;7.582;2023-09-19T09:22:28;18.40;99.90
21678;DHT22;11000;50.360;7.582;2023-09-19T09:24:56;18.40;99.90
21678;DHT22;11000;50.360;7.582;2023-09-19T09:27:21;18.40;99.90
21678;DHT22;11000;50.360;7.582;2023-09-19T09:29:45;18.40;99.90
21678;DHT22;11000;50.360;7.582;2023-09-19T09:32:28;18.40;99.90
21678;DHT22;11000;50.360;7.582;2023-09-19T09:34:54;18.50;99.90
21678;DHT22;11000;50.360;7.582;2023-09-19T09:37:15;18.50;99.90
21678;DHT22;11000;50.360;7.582;2023-09-19T09:39:37;18.70;99.90
21678;DHT22;11000;50.360;7.582;2023-09-19T09:41:57;18.80;99.90
21678;DHT22;11000;50.360;7.582;2023-09-19T09:44:19;18.90;99.90
21678;DHT22;11000;50.360;7.582;2023-09-19T09:46:43;18.80;99.90
21678;DHT22;11000;50.360;7.582;2023-09-19T09:49:10;19.00;99.90
21678;DHT22;11000;50.360;7.582;2023-09-19T09:51:51;19.00;99.90
21678;DHT22;11000;50.360;7.582;2023-09-19T09:54:19;18.90;99.90
21678;DHT22;11000;50.360;7.582;2023-09-19T09:57:00;18.80;99.90
21678;DHT22;11000;50.360;7.582;2023-09-19T09:59:21;18.90;99.90
21678;DHT22;11000;50.360;7.582;2023-09-19T10:01:47;19.00;99.90
21678;DHT22;11000;50.360;7.582;2023-09-19T10:04:27;19.00;99.90
21678;DHT22;11000;50.360;7.582;2023-09-19T10:06:56;18.90;99.90
21678;DHT22;11000;50.360;7.582;2023-09-19T10:09:17;18.80;99.90
21678;DHT22;11000;50.360;7.582;2023-09-19T10:11:43;18.80;99.90
21678;DHT22;11000;50.360;7.582;2023-09-19T10:14:04;18.80;99.90
21678;DHT22;11000;50.360;7.582;2023-09-19T10:16:29;18.80;99.90
21678;DHT22;11000;50.360;7.582;2023-09-19T10:18:54;18.90;99.90
21678;DHT22;11000;50.360;7.582;2023-09-19T10:21:18;19.00;99.90
21678;DHT22;11000;50.360;7.582;2023-09-19T10:23:42;19.20;99.90
21678;DHT22;11000;50.360;7.582;2023-09-19T10:26:05;19.50;99.90
21678;DHT22;11000;50.360;7.582;2023-09-19T10:28:28;19.70;99.90
21678;DHT22;11000;50.360;7.582;2023-09-19T10:30:52;19.80;99.90
21678;DHT22;11000;50.360;7.582;2023-09-19T10:33:14;20.00;99.90
21678;DHT22;11000;50.360;7.582;2023-09-19T10:35:38;20.00;99.90
21678;DHT22;11000;50.360;7.582;2023-09-19T10:38:01;19.90;99.90
21678;DHT22;11000;50.360;7.582;2023-09-19T10:40:23;19.80;99.90
21678;DHT22;11000;50.360;7.582;2023-09-19T10:42:51;19.80;99.90
21678;DHT22;11000;50.360;7.582;2023-09-19T10:45:12;19.80;99.90
21678;DHT22;11000;50.360;7.582;2023-09-19T10:47:35;19.70;99.90
21678;DHT22;11000;50.360;7.582;2023-09-19T10:49:58;19.80;99.90
21678;DHT22;11000;50.360;7.582;2023-09-19T10:52:22;19.80;99.90
21678;DHT22;11000;50.360;7.582;2023-09-19T10:54:53;19.90;99.90
21678;DHT22;11000;50.360;7.582;2023-09-19T10:57:21;20.00;99.90
21678;DHT22;11000;50.360;7.582;2023-09-19T11:00:02;20.00;99.90
21678;DHT22;11000;50.360;7.582;2023-09-19T11:02:27;20.20;99.90
21678;DHT22;11000;50.360;7.582;2023-09-19T11:04:48;20.10;99.90
21678;DHT22;11000;50.360;7.582;2023-09-19T11:07:12;20.30;99.90
21678;DHT22;11000;50.360;7.582;2023-09-19T11:09:52;20.40;99.90
21678;DHT22;11000;50.360;7.582;2023-09-19T11:14:52;20.50;99.90
21678;DHT22;11000;50.360;7.582;2023-09-19T11:30:26;21.00;99.90
21678;DHT22;11000;50.360;7.582;2023-09-19T11:41:42;21.10;99.90
21678;DHT22;11000;50.360;7.582;2023-09-19T11:46:33;21.40;99.90
21678;DHT22;11000;50.360;7.582;2023-09-19T11:48:54;21.30;99.90
21678;DHT22;11000;50.360;7.582;2023-09-19T11:51:18;20.90;99.90
21678;DHT22;11000;50.360;7.582;2023-09-19T11:53:40;20.60;99.90
21678;DHT22;11000;50.360;7.582;2023-09-19T11:56:01;20.40;99.90
21678;DHT22;11000;50.360;7.582;2023-09-19T11:58:21;20.40;99.90
21678;DHT22;11000;50.360;7.582;2023-09-19T12:00:45;20.70;99.90
21678;DHT22;11000;50.360;7.582;2023-09-19T12:03:09;21.30;99.90
21678;DHT22;11000;50.360;7.582;2023-09-19T12:05:30;21.60;99.90
21678;DHT22;11000;50.360;7.582;2023-09-19T12:07:53;21.80;99.90
21678;DHT22;11000;50.360;7.582;2023-09-19T12:10:14;22.10;99.90
21678;DHT22;11000;50.360;7.582;2023-09-19T12:12:37;22.30;99.90
21678;DHT22;11000;50.360;7.582;2023-09-19T12:14:58;22.30;99.90
21678;DHT22;11000;50.360;7.582;2023-09-19T12:17:19;22.50;99.90
21678;DHT22;11000;50.360;7.582;2023-09-19T12:19:53;22.70;99.90
21678;DHT22;11000;50.360;7.582;2023-09-19T12:22:14;22.70;98.30
21678;DHT22;11000;50.360;7.582;2023-09-19T12:24:35;22.90;98.70
21678;DHT22;11000;50.360;7.582;2023-09-19T12:27:03;23.10;98.90
21678;DHT22;11000;50.360;7.582;2023-09-19T12:29:27;23.20;98.10
21678;DHT22;11000;50.360;7.582;2023-09-19T12:31:55;23.20;99.10
21678;DHT22;11000;50.360;7.582;2023-09-19T12:34:21;23.10;98.80
21678;DHT22;11000;50.360;7.582;2023-09-19T12:36:43;22.40;99.90
21678;DHT22;11000;50.360;7.582;2023-09-19T12:39:03;22.20;99.90
21678;DHT22;11000;50.360;7.582;2023-09-19T12:41:29;22.00;99.90
21678;DHT22;11000;50.360;7.582;2023-09-19T12:43:51;21.70;99.90
21678;DHT22;11000;50.360;7.582;2023-09-19T12:46:13;21.70;99.90
21678;DHT22;11000;50.360;7.582;2023-09-19T12:48:35;21.60;99.90
21678;DHT22;11000;50.360;7.582;2023-09-19T12:51:08;21.60;99.90
21678;DHT22;11000;50.360;7.582;2023-09-19T12:53:39;21.70;99.90
21678;DHT22;11000;50.360;7.582;2023-09-19T12:56:02;21.90;99.90
21678;DHT22;11000;50.360;7.582;2023-09-19T12:58:26;21.80;99.90
21678;DHT22;11000;50.360;7.582;2023-09-19T13:00:47;21.80;99.90
21678;DHT22;11000;50.360;7.582;2023-09-19T13:05:55;22.20;99.90
21678;DHT22;11000;50.360;7.582;2023-09-19T13:11:01;23.10;99.10
21678;DHT22;11000;50.360;7.582;2023-09-19T13:13:24;23.10;96.70
21678;DHT22;11000;50.360;7.582;2023-09-19T13:15:55;22.80;97.90
21678;DHT22;11000;50.360;7.582;2023-09-19T13:18:18;22.70;98.30
21678;DHT22;11000;50.360;7.582;2023-09-19T13:20:41;22.60;99.90
21678;DHT22;11000;50.360;7.582;2023-09-19T13:23:26;22.90;97.70
21678;DHT22;11000;50.360;7.582;2023-09-19T13:25:46;22.80;98.40
21678;DHT22;11000;50.360;7.582;2023-09-19T13:28:08;22.80;97.50
21678;DHT22;11000;50.360;7.582;2023-09-19T13:30:28;22.70;98.80
21678;DHT22;11000;50.360;7.582;2023-09-19T13:33:03;22.60;98.60
21678;DHT22;11000;50.360;7.582;2023-09-19T13:35:25;22.60;99.90
21678;DHT22;11000;50.360;7.582;2023-09-19T13:37:47;23.10;99.30
21678;DHT22;11000;50.360;7.582;2023-09-19T13:40:09;23.50;95.90
21678;DHT22;11000;50.360;7.582;2023-09-19T13:42:30;23.60;93.50
21678;DHT22;11000;50.360;7.582;2023-09-19T13:44:52;23.60;93.20
21678;DHT22;11000;50.360;7.582;2023-09-19T13:47:14;23.50;93.00
21678;DHT22;11000;50.360;7.582;2023-09-19T13:49:35;23.50;94.20
21678;DHT22;11000;50.360;7.582;2023-09-19T13:51:56;23.60;93.10
21678;DHT22;11000;50.360;7.582;2023-09-19T13:54:17;23.60;92.50
21678;DHT22;11000;50.360;7.582;2023-09-19T13:56:37;23.60;92.30
21678;DHT22;11000;50.360;7.582;2023-09-19T13:58:59;23.50;92.80
21678;DHT22;11000;50.360;7.582;2023-09-19T14:01:19;23.30;93.60
21678;DHT22;11000;50.360;7.582;2023-09-19T14:03:41;23.40;93.70
21678;DHT22;11000;50.360;7.582;2023-09-19T14:06:04;23.40;94.70
21678;DHT22;11000;50.360;7.582;2023-09-19T14:08:24;23.50;93.80
21678;DHT22;11000;50.360;7.582;2023-09-19T14:10:45;23.50;91.50
21678;DHT22;11000;50.360;7.582;2023-09-19T14:13:06;23.50;91.60
21678;DHT22;11000;50.360;7.582;2023-09-19T14:15:27;23.60;90.90
21678;DHT22;11000;50.360;7.582;2023-09-19T14:17:50;23.60;90.20
21678;DHT22;11000;50.360;7.582;2023-09-19T14:20:11;23.50;90.70
21678;DHT22;11000;50.360;7.582;2023-09-19T14:22:32;23.30;93.00
21678;DHT22;11000;50.360;7.582;2023-09-19T14:24:53;23.40;89.60
21678;DHT22;11000;50.360;7.582;2023-09-19T14:27:14;23.30;90.90
21678;DHT22;11000;50.360;7.582;2023-09-19T14:29:35;23.30;89.00
21678;DHT22;11000;50.360;7.582;2023-09-19T14:31:56;23.30;89.20
21678;DHT22;11000;50.360;7.582;2023-09-19T14:34:18;23.30;88.40
21678;DHT22;11000;50.360;7.582;2023-09-19T14:36:39;23.30;87.70
21678;DHT22;11000;50.360;7.582;2023-09-19T14:39:00;23.30;88.00
21678;DHT22;11000;50.360;7.582;2023-09-19T14:41:21;23.50;87.10
21678;DHT22;11000;50.360;7.582;2023-09-19T14:43:42;23.40;85.70
21678;DHT22;11000;50.360;7.582;2023-09-19T14:46:03;23.30;83.60
21678;DHT22;11000;50.360;7.582;2023-09-19T14:48:24;23.30;85.10
21678;DHT22;11000;50.360;7.582;2023-09-19T14:50:46;23.10;86.00
21678;DHT22;11000;50.360;7.582;2023-09-19T14:53:08;23.10;86.30
21678;DHT22;11000;50.360;7.582;2023-09-19T14:55:31;23.00;87.50
21678;DHT22;11000;50.360;7.582;2023-09-19T14:57:55;23.10;86.70
21678;DHT22;11000;50.360;7.582;2023-09-19T15:00:19;23.10;88.20
21678;DHT22;11000;50.360;7.582;2023-09-19T15:02:41;23.10;89.50
21678;DHT22;11000;50.360;7.582;2023-09-19T15:05:02;23.10;90.30
21678;DHT22;11000;50.360;7.582;2023-09-19T15:07:23;23.00;87.70
21678;DHT22;11000;50.360;7.582;2023-09-19T15:09:44;23.00;87.90
21678;DHT22;11000;50.360;7.582;2023-09-19T15:12:06;23.20;87.70
21678;DHT22;11000;50.360;7.582;2023-09-19T15:14:26;23.20;87.40
21678;DHT22;11000;50.360;7.582;2023-09-19T15:16:47;23.10;88.30
21678;DHT22;11000;50.360;7.582;2023-09-19T15:19:08;23.20;87.60
21678;DHT22;11000;50.360;7.582;2023-09-19T15:21:30;23.10;89.50
21678;DHT22;11000;50.360;7.582;2023-09-19T15:23:51;23.10;90.60
21678;DHT22;11000;50.360;7.582;2023-09-19T15:26:13;23.00;91.30
21678;DHT22;11000;50.360;7.582;2023-09-19T15:28:34;23.10;90.50
21678;DHT22;11000;50.360;7.582;2023-09-19T15:31:02;23.10;91.20
21678;DHT22;11000;50.360;7.582;2023-09-19T15:33:23;23.10;91.70
21678;DHT22;11000;50.360;7.582;2023-09-19T15:35:43;23.10;90.90
21678;DHT22;11000;50.360;7.582;2023-09-19T15:38:04;23.10;91.80
21678;DHT22;11000;50.360;7.582;2023-09-19T15:40:26;23.00;92.40
21678;DHT22;11000;50.360;7.582;2023-09-19T15:42:47;22.90;92.50
21678;DHT22;11000;50.360;7.582;2023-09-19T15:45:08;22.90;93.80
21678;DHT22;11000;50.360;7.582;2023-09-19T15:47:30;22.80;94.10
21678;DHT22;11000;50.360;7.582;2023-09-19T15:49:51;22.70;94.70
21678;DHT22;11000;50.360;7.582;2023-09-19T15:52:11;22.60;94.70